createdAt,value
2023-08-03T00:01:03.352Z,96173.88
2023-08-03T00:03:30.033Z,96175.75
2023-08-03T00:05:56.673Z,96178.16
2023-08-03T00:08:23.161Z,96180.66
2023-08-03T00:10:49.632Z,96179.94
2023-08-03T00:13:16.132Z,96176.25
2023-08-03T00:15:42.697Z,96175.78
2023-08-03T00:18:09.258Z,96185.19
2023-08-03T00:20:35.718Z,96183.56
2023-08-03T00:23:02.297Z,96188.41
2023-08-03T00:25:28.904Z,96179.41
2023-08-03T00:27:55.448Z,96185.59
2023-08-03T00:30:21.891Z,96188.53
2023-08-03T00:32:48.379Z,96185.81
2023-08-03T00:35:14.920Z,96177.59
2023-08-03T00:37:41.396Z,96192.66
2023-08-03T00:40:07.915Z,96195.28
2023-08-03T00:42:34.370Z,96203.81
2023-08-03T00:45:00.861Z,96203.34
2023-08-03T00:47:27.334Z,96197.66
2023-08-03T00:49:53.862Z,96205.31
2023-08-03T00:52:20.394Z,96196.94
2023-08-03T00:54:46.868Z,96196.34
2023-08-03T00:57:13.449Z,96211.19
2023-08-03T00:59:39.932Z,96217.84
2023-08-03T01:02:06.468Z,96206.00
2023-08-03T01:04:32.963Z,96218.00
2023-08-03T01:06:59.400Z,96223.53
2023-08-03T01:09:25.873Z,96225.88
2023-08-03T01:11:52.339Z,96225.59
2023-08-03T01:14:18.822Z,96230.34
2023-08-03T01:16:45.307Z,96229.91
2023-08-03T01:19:11.768Z,96232.88
2023-08-03T01:21:38.197Z,96233.41
2023-08-03T01:24:04.618Z,96239.19
2023-08-03T01:26:31.074Z,96243.47
2023-08-03T01:28:57.528Z,96247.28
2023-08-03T01:31:24.235Z,96256.94
2023-08-03T01:33:50.756Z,96254.91
2023-08-03T01:36:17.197Z,96266.66
2023-08-03T01:38:43.762Z,96272.59
2023-08-03T01:41:10.220Z,96268.56
2023-08-03T01:43:36.647Z,96280.75
2023-08-03T01:46:03.112Z,96280.75
2023-08-03T01:48:29.624Z,96287.28
2023-08-03T01:50:56.096Z,96287.72
2023-08-03T01:53:22.654Z,96285.31
2023-08-03T01:55:49.119Z,96289.78
2023-08-03T01:58:15.570Z,96279.97
2023-08-03T02:00:42.061Z,96301.50
2023-08-03T02:03:08.552Z,96290.59
2023-08-03T02:05:35.172Z,96292.38
2023-08-03T02:08:01.673Z,96290.91
2023-08-03T02:10:28.138Z,96297.72
2023-08-03T02:12:54.589Z,96296.66
2023-08-03T02:15:21.011Z,96308.19
2023-08-03T02:17:47.530Z,96303.06
2023-08-03T02:20:14.059Z,96297.97
2023-08-03T02:22:40.527Z,96296.84
2023-08-03T02:25:07.005Z,96309.78
2023-08-03T02:27:33.537Z,96302.88
2023-08-03T02:30:00.020Z,96311.84
2023-08-03T02:32:26.578Z,96297.69
2023-08-03T02:34:53.043Z,96309.97
2023-08-03T02:37:19.528Z,96301.06
2023-08-03T02:39:45.975Z,96301.97
2023-08-03T02:42:12.572Z,96303.50
2023-08-03T02:44:39.101Z,96307.59
2023-08-03T02:47:05.610Z,96301.09
2023-08-03T02:49:32.077Z,96294.97
2023-08-03T02:51:58.651Z,96304.78
2023-08-03T02:54:25.154Z,96294.56
2023-08-03T02:56:51.577Z,96308.81
2023-08-03T02:59:18.014Z,96298.78
2023-08-03T03:01:44.672Z,96295.50
2023-08-03T03:04:11.258Z,96291.38
2023-08-03T03:06:37.749Z,96300.91
2023-08-03T03:09:04.267Z,96301.22
2023-08-03T03:11:30.847Z,96303.31
2023-08-03T03:13:57.302Z,96311.56
2023-08-03T03:16:23.934Z,96294.19
2023-08-03T03:18:50.407Z,96299.78
2023-08-03T03:21:16.886Z,96308.41
2023-08-03T03:23:43.330Z,96313.19
2023-08-03T03:26:09.802Z,96310.59
2023-08-03T03:28:36.266Z,96308.91
2023-08-03T03:31:02.707Z,96305.38
2023-08-03T03:33:29.181Z,96314.00
2023-08-03T03:35:55.653Z,96315.28
2023-08-03T03:38:22.096Z,96303.50
2023-08-03T03:40:48.639Z,96307.50
2023-08-03T03:43:15.080Z,96309.97
2023-08-03T03:45:41.568Z,96305.72
2023-08-03T03:48:08.114Z,96309.00
2023-08-03T03:50:34.661Z,96312.50
2023-08-03T03:53:01.140Z,96318.31
2023-08-03T03:55:27.593Z,96316.69
2023-08-03T03:57:54.029Z,96314.88
2023-08-03T04:00:20.575Z,96315.41
2023-08-03T04:02:47.029Z,96319.59
2023-08-03T04:05:13.512Z,96324.09
2023-08-03T04:07:39.987Z,96328.78
2023-08-03T04:10:06.466Z,96326.47
2023-08-03T04:12:32.908Z,96314.78
2023-08-03T04:14:59.356Z,96334.22
2023-08-03T04:17:25.827Z,96319.00
2023-08-03T04:19:52.281Z,96323.91
2023-08-03T04:22:18.772Z,96334.06
2023-08-03T04:24:45.238Z,96344.13
2023-08-03T04:27:11.711Z,96342.00
2023-08-03T04:29:38.306Z,96342.41
2023-08-03T04:32:04.835Z,96342.69
2023-08-03T04:34:31.319Z,96347.38
2023-08-03T04:37:00.875Z,96354.41
2023-08-03T04:39:27.733Z,96348.91
2023-08-03T04:41:54.558Z,96347.22
2023-08-03T04:44:21.218Z,96353.50
2023-08-03T04:46:47.954Z,96361.59
2023-08-03T04:49:14.753Z,96369.00
2023-08-03T04:51:41.477Z,96371.22
2023-08-03T04:54:07.996Z,96370.59
2023-08-03T04:56:34.947Z,96370.19
2023-08-03T04:59:01.502Z,96365.41
2023-08-03T05:01:28.268Z,96373.44
2023-08-03T05:03:55.023Z,96372.31
2023-08-03T05:06:21.589Z,96367.81
2023-08-03T05:08:49.386Z,96374.53
2023-08-03T05:11:16.058Z,96376.34
2023-08-03T05:13:42.614Z,96374.94
2023-08-03T05:16:09.190Z,96377.00
2023-08-03T05:18:35.661Z,96382.31
2023-08-03T05:21:02.409Z,96380.03
2023-08-03T05:23:28.869Z,96381.44
2023-08-03T05:25:55.327Z,96378.00
2023-08-03T05:28:21.990Z,96392.44
2023-08-03T05:30:48.805Z,96382.56
2023-08-03T05:33:18.471Z,96381.47
2023-08-03T05:35:45.093Z,96385.34
2023-08-03T05:38:11.700Z,96383.81
2023-08-03T05:40:38.309Z,96386.84
2023-08-03T05:43:04.805Z,96387.91
2023-08-03T05:45:31.455Z,96388.44
2023-08-03T05:47:57.966Z,96399.16
2023-08-03T05:50:24.462Z,96400.13
2023-08-03T05:52:51.181Z,96393.66
2023-08-03T05:55:17.684Z,96395.31
2023-08-03T05:57:44.128Z,96399.72
2023-08-03T06:00:10.738Z,96396.34
2023-08-03T06:02:37.332Z,96395.91
2023-08-03T06:05:07.853Z,96397.81
2023-08-03T06:07:37.221Z,96398.69
2023-08-03T06:10:03.950Z,96395.66
2023-08-03T06:12:30.421Z,96403.47
2023-08-03T06:14:56.980Z,96391.63
2023-08-03T06:17:23.647Z,96396.53
2023-08-03T06:19:50.193Z,96407.78
2023-08-03T06:22:16.807Z,96402.75
2023-08-03T06:24:43.392Z,96410.38
2023-08-03T06:27:10.002Z,96391.72
2023-08-03T06:29:42.741Z,96390.31
2023-08-03T06:32:11.962Z,96397.00
2023-08-03T06:34:38.764Z,96403.78
2023-08-03T06:37:05.317Z,96394.84
2023-08-03T06:39:32.041Z,96392.34
2023-08-03T06:41:58.771Z,96401.69
2023-08-03T06:44:25.455Z,96414.97
2023-08-03T06:46:52.091Z,96404.47
2023-08-03T06:49:18.801Z,96404.50
2023-08-03T06:51:47.750Z,96408.53
2023-08-03T06:54:14.583Z,96403.22
2023-08-03T06:56:41.073Z,96399.00
2023-08-03T06:59:07.764Z,96399.22
2023-08-03T07:01:34.288Z,96402.53
2023-08-03T07:04:00.927Z,96398.53
2023-08-03T07:06:30.516Z,96392.28
2023-08-03T07:08:57.296Z,96400.53
2023-08-03T07:11:24.144Z,96398.69
2023-08-03T07:13:51.065Z,96394.84
2023-08-03T07:16:17.857Z,96395.03
2023-08-03T07:18:44.683Z,96397.88
2023-08-03T07:21:11.153Z,96402.44
2023-08-03T07:23:37.748Z,96395.97
2023-08-03T07:26:04.292Z,96396.63
2023-08-03T07:28:33.639Z,96394.13
2023-08-03T07:31:00.411Z,96395.63
2023-08-03T07:33:27.343Z,96388.88
2023-08-03T07:35:56.523Z,96396.59
2023-08-03T07:38:23.210Z,96393.94
2023-08-03T07:40:49.893Z,96403.56
2023-08-03T07:43:17.084Z,96403.03
2023-08-03T07:48:13.685Z,96400.91
2023-08-03T07:50:40.160Z,96399.88
2023-08-03T07:53:06.741Z,96400.03
2023-08-03T07:55:33.391Z,96392.47
2023-08-03T07:58:00.302Z,96398.38
2023-08-03T08:00:28.911Z,96394.84
2023-08-03T08:02:55.524Z,96399.16
2023-08-03T08:05:22.286Z,96395.25
2023-08-03T08:07:49.104Z,96402.25
2023-08-03T08:10:15.816Z,96400.53
2023-08-03T08:12:42.523Z,96399.56
2023-08-03T08:15:10.315Z,96399.72
2023-08-03T08:17:36.813Z,96404.56
2023-08-03T08:20:03.845Z,96392.13
2023-08-03T08:22:30.849Z,96399.44
2023-08-03T08:24:57.754Z,96404.72
2023-08-03T08:27:27.505Z,96401.00
2023-08-03T08:29:54.304Z,96404.44
2023-08-03T08:32:21.078Z,96409.84
2023-08-03T08:34:47.900Z,96420.56
2023-08-03T08:37:15.099Z,96415.47
2023-08-03T08:39:41.745Z,96416.69
2023-08-03T08:42:08.323Z,96408.41
2023-08-03T08:44:34.863Z,96420.41
2023-08-03T08:47:03.493Z,96412.06
2023-08-03T08:51:59.683Z,96426.28
2023-08-03T08:57:14.314Z,96418.91
2023-08-03T08:59:40.893Z,96421.34
2023-08-03T09:02:07.506Z,96413.50
2023-08-03T09:04:35.404Z,96414.00
2023-08-03T09:07:02.694Z,96415.13
2023-08-03T09:09:29.413Z,96404.81
2023-08-03T09:11:55.997Z,96405.13
2023-08-03T09:14:22.662Z,96399.81
2023-08-03T09:16:49.348Z,96406.06
2023-08-03T09:19:15.995Z,96405.81
2023-08-03T09:29:12.250Z,96401.16
2023-08-03T09:34:15.318Z,96402.78
2023-08-03T09:36:41.892Z,96406.63
2023-08-03T09:39:31.013Z,96402.00
2023-08-03T09:44:24.179Z,96402.34
2023-08-03T09:46:50.813Z,96408.88
2023-08-03T09:49:17.442Z,96415.09
2023-08-03T09:56:42.737Z,96417.97
2023-08-03T09:59:09.232Z,96428.88
2023-08-03T10:01:35.680Z,96426.91
2023-08-03T10:04:02.219Z,96421.50
2023-08-03T10:06:28.741Z,96413.09
2023-08-03T10:08:55.205Z,96407.38
2023-08-03T10:11:21.659Z,96402.91
2023-08-03T10:13:48.119Z,96408.50
2023-08-03T10:16:14.719Z,96411.19
2023-08-03T10:21:10.667Z,96409.41
2023-08-03T10:23:37.495Z,96417.56
2023-08-03T10:26:04.012Z,96419.03
2023-08-03T10:28:30.526Z,96420.69
2023-08-03T10:30:57.019Z,96413.59
2023-08-03T10:33:23.520Z,96415.38
2023-08-03T10:35:50.023Z,96408.97
2023-08-03T10:38:16.462Z,96407.47
2023-08-03T10:40:42.892Z,96405.72
2023-08-03T10:43:09.345Z,96397.81
2023-08-03T10:45:35.994Z,96398.78
2023-08-03T10:48:02.613Z,96394.63
2023-08-03T10:50:29.252Z,96389.09
2023-08-03T10:52:55.726Z,96391.06
2023-08-03T10:55:22.342Z,96393.47
2023-08-03T10:57:48.889Z,96398.41
2023-08-03T11:00:15.371Z,96390.66
2023-08-03T11:02:41.956Z,96388.94
2023-08-03T11:05:09.628Z,96389.88
2023-08-03T11:07:36.375Z,96391.66
2023-08-03T11:10:02.842Z,96399.81
2023-08-03T11:12:29.309Z,96394.19
2023-08-03T11:14:55.766Z,96395.72
2023-08-03T11:17:22.325Z,96400.59
2023-08-03T11:19:48.914Z,96402.13
2023-08-03T11:22:15.533Z,96398.78
2023-08-03T11:24:41.967Z,96400.28
2023-08-03T11:27:08.491Z,96404.66
2023-08-03T11:29:35.002Z,96402.53
2023-08-03T11:32:01.509Z,96412.59
2023-08-03T11:34:28.004Z,96404.47
2023-08-03T11:36:54.506Z,96397.72
2023-08-03T11:39:21.054Z,96399.59
2023-08-03T11:41:47.550Z,96393.28
2023-08-03T11:44:13.979Z,96397.28
2023-08-03T11:46:40.512Z,96396.34
2023-08-03T11:49:06.978Z,96392.91
2023-08-03T11:51:33.697Z,96398.47
2023-08-03T11:54:00.276Z,96392.31
2023-08-03T11:56:38.241Z,96392.59
2023-08-03T11:59:08.848Z,96383.38
2023-08-03T12:01:35.437Z,96390.31
2023-08-03T12:04:02.209Z,96389.38
2023-08-03T12:08:58.320Z,96378.81
2023-08-03T12:11:25.476Z,96380.03
2023-08-03T12:13:52.205Z,96385.81
2023-08-03T12:16:18.816Z,96380.03
2023-08-03T12:18:45.408Z,96379.97
2023-08-03T12:21:12.068Z,96385.28
2023-08-03T12:23:38.598Z,96378.34
2023-08-03T12:26:05.170Z,96382.22
2023-08-03T12:28:31.618Z,96375.81
2023-08-03T12:31:00.807Z,96363.34
2023-08-03T12:33:27.561Z,96374.56
2023-08-03T12:35:54.182Z,96377.63
2023-08-03T12:38:22.242Z,96367.53
2023-08-03T12:40:48.684Z,96370.09
2023-08-03T12:43:17.115Z,96364.59
2023-08-03T12:45:45.341Z,96373.88
2023-08-03T12:50:41.514Z,96366.34
2023-08-03T12:53:08.168Z,96359.69
2023-08-03T12:55:35.165Z,96360.69
2023-08-03T12:58:01.645Z,96361.78
2023-08-03T13:00:29.319Z,96361.44
2023-08-03T13:02:56.177Z,96364.28
2023-08-03T13:05:25.749Z,96356.63
2023-08-03T13:07:52.768Z,96374.16
2023-08-03T13:10:19.407Z,96373.94
2023-08-03T13:12:45.884Z,96349.66
2023-08-03T13:15:12.378Z,96355.53
2023-08-03T13:17:39.058Z,96359.31
2023-08-03T13:20:05.893Z,96347.47
2023-08-03T13:22:32.498Z,96349.66
2023-08-03T13:24:59.019Z,96357.00
2023-08-03T13:27:26.117Z,96339.50
2023-08-03T13:29:52.600Z,96342.59
2023-08-03T13:32:19.073Z,96342.25
2023-08-03T13:34:47.782Z,96344.84
2023-08-03T13:37:14.655Z,96333.81
2023-08-03T13:39:41.130Z,96337.56
2023-08-03T13:42:08.125Z,96330.63
2023-08-03T13:44:34.892Z,96325.41
2023-08-03T13:47:01.505Z,96337.78
2023-08-03T13:49:28.057Z,96335.97
2023-08-03T13:51:54.841Z,96348.25
2023-08-03T13:54:21.357Z,96332.22
2023-08-03T13:56:59.889Z,96332.88
2023-08-03T13:59:26.984Z,96330.63
2023-08-03T14:04:23.700Z,96330.56
2023-08-03T14:09:19.787Z,96301.00
2023-08-03T14:16:48.113Z,96296.28
2023-08-03T14:19:18.179Z,96293.88
2023-08-03T14:26:51.593Z,96296.22
2023-08-03T14:29:18.066Z,96296.50
2023-08-03T14:31:44.689Z,96297.22
2023-08-03T14:34:11.492Z,96298.47
2023-08-03T14:36:37.926Z,96289.72
2023-08-03T14:39:05.158Z,96295.69
2023-08-03T14:44:04.832Z,96282.56
2023-08-03T14:46:32.017Z,96285.75
2023-08-03T14:49:09.892Z,96292.53
2023-08-03T14:54:06.161Z,96294.59
2023-08-03T14:56:34.119Z,96293.22
2023-08-03T14:59:00.649Z,96296.72
2023-08-03T15:01:27.195Z,96293.84
2023-08-03T15:03:53.819Z,96296.69
2023-08-03T15:06:24.262Z,96296.50
2023-08-03T15:08:51.180Z,96297.31
2023-08-03T15:11:17.637Z,96287.56
2023-08-03T15:13:45.582Z,96288.47
2023-08-03T15:18:43.237Z,96280.03
2023-08-03T15:21:17.598Z,96283.41
2023-08-03T15:26:17.160Z,96279.75
2023-08-03T15:31:15.154Z,96277.13
2023-08-03T15:33:42.126Z,96261.81
2023-08-03T15:36:10.276Z,96272.84
2023-08-03T15:38:39.335Z,96270.53
2023-08-03T15:41:07.075Z,96271.28
2023-08-03T15:43:37.605Z,96264.97
2023-08-03T15:46:11.834Z,96268.22
2023-08-03T15:51:11.286Z,96263.09
2023-08-03T15:53:44.372Z,96259.09
2023-08-03T15:56:15.195Z,96261.50
2023-08-03T15:58:41.788Z,96253.28
2023-08-03T16:01:08.261Z,96251.72
2023-08-03T16:03:34.844Z,96249.81
2023-08-03T16:06:01.321Z,96250.13
2023-08-03T16:08:27.761Z,96251.38
2023-08-03T16:10:54.295Z,96244.66
2023-08-03T16:13:20.791Z,96254.44
2023-08-03T16:15:47.279Z,96252.09
2023-08-03T16:18:13.745Z,96238.16
2023-08-03T16:20:40.254Z,96246.63
2023-08-03T16:23:06.708Z,96251.41
2023-08-03T16:25:33.230Z,96238.75
2023-08-03T16:27:59.697Z,96246.84
2023-08-03T16:30:26.360Z,96255.47
2023-08-03T16:32:52.877Z,96250.63
2023-08-03T16:35:19.631Z,96249.72
2023-08-03T16:37:46.358Z,96248.66
2023-08-03T16:40:12.836Z,96250.16
2023-08-03T16:42:39.420Z,96252.59
2023-08-03T16:45:05.946Z,96255.78
2023-08-03T16:47:32.390Z,96259.13
2023-08-03T16:49:59.077Z,96255.97
2023-08-03T16:52:25.567Z,96259.31
2023-08-03T16:54:52.408Z,96254.53
2023-08-03T16:57:18.884Z,96256.09
2023-08-03T16:59:45.341Z,96267.25
2023-08-03T17:02:11.814Z,96275.53
2023-08-03T17:04:38.279Z,96270.13
2023-08-03T17:07:04.803Z,96269.00
2023-08-03T17:09:31.319Z,96260.63
2023-08-03T17:11:57.959Z,96276.38
2023-08-03T17:14:24.481Z,96268.94
2023-08-03T17:16:50.950Z,96274.53
2023-08-03T17:19:17.917Z,96267.66
2023-08-03T17:21:44.504Z,96260.63
2023-08-03T17:24:10.964Z,96262.88
2023-08-03T17:26:37.394Z,96266.97
2023-08-03T17:29:04.101Z,96271.50
2023-08-03T17:31:30.622Z,96283.75
2023-08-03T17:33:57.239Z,96277.13
2023-08-03T17:36:29.931Z,96272.63
2023-08-03T17:38:56.553Z,96274.75
2023-08-03T17:41:23.197Z,96281.09
2023-08-03T17:43:50.012Z,96274.13
2023-08-03T17:46:16.560Z,96281.06
2023-08-03T17:51:23.712Z,96272.84
2023-08-03T17:53:50.601Z,96276.38
2023-08-03T17:56:17.469Z,96275.56
2023-08-03T17:58:47.497Z,96281.59
2023-08-03T18:01:17.226Z,96277.03
2023-08-03T18:03:45.588Z,96275.03
2023-08-03T18:06:15.888Z,96285.03
2023-08-03T18:08:42.876Z,96282.63
2023-08-03T18:11:09.588Z,96286.03
2023-08-03T18:13:36.231Z,96291.56
2023-08-03T18:16:02.685Z,96283.72
2023-08-03T18:18:29.355Z,96289.44
2023-08-03T18:20:55.965Z,96285.94
2023-08-03T18:23:22.431Z,96294.16
2023-08-03T18:25:48.871Z,96284.81
2023-08-03T18:28:18.546Z,96295.66
2023-08-03T18:30:45.148Z,96295.41
2023-08-03T18:33:11.695Z,96299.31
2023-08-03T18:35:38.218Z,96297.91
2023-08-03T18:38:04.716Z,96298.16
2023-08-03T18:40:31.301Z,96297.94
2023-08-03T18:43:03.728Z,96302.09
2023-08-03T18:45:30.178Z,96313.69
2023-08-03T18:47:56.859Z,96309.72
2023-08-03T18:50:23.404Z,96316.06
2023-08-03T18:52:49.890Z,96314.97
2023-08-03T18:55:16.325Z,96324.09
2023-08-03T18:57:42.751Z,96320.41
2023-08-03T19:00:09.465Z,96325.91
2023-08-03T19:02:36.131Z,96332.56
2023-08-03T19:05:05.624Z,96328.28
2023-08-03T19:07:32.469Z,96326.22
2023-08-03T19:09:59.209Z,96336.97
2023-08-03T19:12:25.996Z,96343.19
2023-08-03T19:14:57.310Z,96353.19
2023-08-03T19:17:23.761Z,96357.72
2023-08-03T19:19:50.507Z,96362.03
2023-08-03T19:22:16.950Z,96372.78
2023-08-03T19:24:48.969Z,96379.25
2023-08-03T19:27:15.614Z,96378.75
2023-08-03T19:29:42.313Z,96385.91
2023-08-03T19:32:08.750Z,96391.16
2023-08-03T19:34:35.262Z,96388.28
2023-08-03T19:37:01.703Z,96397.47
2023-08-03T19:39:28.214Z,96404.75
2023-08-03T19:41:59.706Z,96405.88
2023-08-03T19:44:26.192Z,96399.63
2023-08-03T19:46:52.625Z,96406.50
2023-08-03T19:51:51.991Z,96400.59
2023-08-03T19:56:48.156Z,96403.63
2023-08-03T20:06:43.256Z,96409.50
2023-08-03T20:09:09.868Z,96413.66
2023-08-03T20:11:38.269Z,96414.78
2023-08-03T20:14:04.710Z,96416.25
2023-08-03T20:21:30.560Z,96433.66
2023-08-03T20:23:57.957Z,96439.53
2023-08-03T20:29:04.207Z,96434.09
2023-08-03T20:31:31.649Z,96438.53
2023-08-03T20:33:58.088Z,96442.59
2023-08-03T20:36:24.523Z,96446.72
2023-08-03T20:39:13.731Z,96441.44
2023-08-03T20:49:09.030Z,96417.00
2023-08-03T20:51:35.881Z,96420.03
2023-08-03T20:54:02.538Z,96423.22
2023-08-03T20:56:29.064Z,96414.78
2023-08-03T20:58:55.576Z,96408.41
2023-08-03T21:01:22.084Z,96419.09
2023-08-03T21:03:48.546Z,96415.41
2023-08-03T21:06:19.064Z,96421.78
2023-08-03T21:08:45.548Z,96430.41
2023-08-03T21:11:12.036Z,96429.44
2023-08-03T21:13:38.534Z,96437.09
2023-08-03T21:16:05.027Z,96442.84
2023-08-03T21:21:03.499Z,96434.94
2023-08-03T21:23:30.164Z,96435.28
2023-08-03T21:25:56.637Z,96436.00
2023-08-03T21:28:23.277Z,96438.78
2023-08-03T21:30:49.968Z,96445.44
2023-08-03T21:33:16.648Z,96443.59
2023-08-03T21:35:43.137Z,96437.78
2023-08-03T21:38:09.956Z,96448.56
2023-08-03T21:40:38.573Z,96448.84
2023-08-03T21:43:05.380Z,96446.91
2023-08-03T21:45:31.845Z,96435.63
2023-08-03T21:47:58.352Z,96446.94
2023-08-03T21:50:24.825Z,96447.00
2023-08-03T21:52:51.280Z,96446.63
2023-08-03T21:55:17.721Z,96444.88
2023-08-03T21:57:44.219Z,96436.44
2023-08-03T22:00:10.688Z,96438.56
2023-08-03T22:02:37.343Z,96437.34
2023-08-03T22:05:03.970Z,96437.44
2023-08-03T22:07:30.398Z,96436.94
2023-08-03T22:09:56.878Z,96439.59
2023-08-03T22:12:23.383Z,96443.41
2023-08-03T22:14:49.868Z,96437.34
2023-08-03T22:17:16.339Z,96444.13
2023-08-03T22:19:42.834Z,96448.06
2023-08-03T22:22:09.277Z,96449.81
2023-08-03T22:24:35.754Z,96447.56
2023-08-03T22:27:02.265Z,96450.09
2023-08-03T22:29:28.753Z,96443.63
2023-08-03T22:31:55.279Z,96455.44
2023-08-03T22:34:21.748Z,96458.16
2023-08-03T22:36:48.226Z,96456.81
2023-08-03T22:39:14.653Z,96454.50
2023-08-03T22:41:41.189Z,96452.25
2023-08-03T22:44:07.624Z,96464.59
2023-08-03T22:46:34.200Z,96459.00
2023-08-03T22:49:00.719Z,96465.88
2023-08-03T22:51:27.162Z,96464.50
2023-08-03T22:53:53.771Z,96470.66
2023-08-03T22:56:20.251Z,96461.56
2023-08-03T22:58:47.079Z,96468.81
2023-08-03T23:01:13.610Z,96458.56
2023-08-03T23:03:40.449Z,96454.50
2023-08-03T23:06:06.953Z,96446.38
2023-08-03T23:08:33.439Z,96456.50
2023-08-03T23:10:59.876Z,96466.66
2023-08-03T23:13:26.310Z,96462.41
2023-08-03T23:15:52.901Z,96458.31
2023-08-03T23:18:19.328Z,96457.75
2023-08-03T23:20:45.787Z,96463.47
2023-08-03T23:23:12.286Z,96461.88
2023-08-03T23:25:38.819Z,96457.63
2023-08-03T23:28:05.275Z,96450.81
2023-08-03T23:30:31.709Z,96459.47
2023-08-03T23:32:58.201Z,96455.38
2023-08-03T23:35:24.780Z,96449.38
2023-08-03T23:37:51.217Z,96452.31
2023-08-03T23:40:17.929Z,96450.06
2023-08-03T23:42:44.408Z,96448.84
2023-08-03T23:45:10.867Z,96453.13
2023-08-03T23:47:37.370Z,96458.25
2023-08-03T23:50:03.924Z,96451.19
2023-08-03T23:52:30.403Z,96460.69
2023-08-03T23:54:56.909Z,96460.47
2023-08-03T23:57:23.360Z,96458.66
2023-08-03T23:59:52.241Z,96460.78
